sensor_id;sensor_type;location;lat;lon;timestamp;P1;durP1;ratioP1;P2;durP2;ratioP2
56319;SDS011;42226;42.382;23.748;2023-08-20T00:00:27;12.35;;;11.15;;
56319;SDS011;42226;42.382;23.748;2023-08-20T00:02:58;12.23;;;11.13;;
56319;SDS011;42226;42.382;23.748;2023-08-20T00:05:30;12.70;;;11.50;;
56319;SDS011;42226;42.382;23.748;2023-08-20T00:08:00;12.77;;;11.38;;
56319;SDS011;42226;42.382;23.748;2023-08-20T00:10:27;13.18;;;11.13;;
56319;SDS011;42226;42.382;23.748;2023-08-20T00:12:56;12.32;;;9.70;;
56319;SDS011;42226;42.382;23.748;2023-08-20T00:15:23;12.68;;;10.88;;
56319;SDS011;42226;42.382;23.748;2023-08-20T00:17:53;11.73;;;10.60;;
56319;SDS011;42226;42.382;23.748;2023-08-20T00:20:22;11.70;;;10.50;;
56319;SDS011;42226;42.382;23.748;2023-08-20T00:22:51;11.63;;;10.43;;
56319;SDS011;42226;42.382;23.748;2023-08-20T00:25:18;12.07;;;10.82;;
56319;SDS011;42226;42.382;23.748;2023-08-20T00:27:45;11.70;;;10.50;;
56319;SDS011;42226;42.382;23.748;2023-08-20T00:30:12;11.02;;;10.02;;
56319;SDS011;42226;42.382;23.748;2023-08-20T00:32:40;11.05;;;10.00;;
56319;SDS011;42226;42.382;23.748;2023-08-20T00:35:07;11.02;;;10.02;;
56319;SDS011;42226;42.382;23.748;2023-08-20T00:37:34;12.02;;;10.82;;
56319;SDS011;42226;42.382;23.748;2023-08-20T00:40:02;11.73;;;10.25;;
56319;SDS011;42226;42.382;23.748;2023-08-20T00:42:30;12.43;;;10.13;;
56319;SDS011;42226;42.382;23.748;2023-08-20T00:44:58;11.35;;;10.18;;
56319;SDS011;42226;42.382;23.748;2023-08-20T00:47:25;11.05;;;10.05;;
56319;SDS011;42226;42.382;23.748;2023-08-20T00:49:53;11.30;;;10.18;;
56319;SDS011;42226;42.382;23.748;2023-08-20T00:52:20;10.73;;;9.77;;
56319;SDS011;42226;42.382;23.748;2023-08-20T00:54:49;10.60;;;9.60;;
56319;SDS011;42226;42.382;23.748;2023-08-20T00:57:19;12.93;;;11.07;;
56319;SDS011;42226;42.382;23.748;2023-08-20T00:59:48;11.23;;;10.23;;
56319;SDS011;42226;42.382;23.748;2023-08-20T01:02:19;12.00;;;9.95;;
56319;SDS011;42226;42.382;23.748;2023-08-20T01:04:47;12.77;;;9.98;;
56319;SDS011;42226;42.382;23.748;2023-08-20T01:12:55;10.82;;;9.82;;
56319;SDS011;42226;42.382;23.748;2023-08-20T01:15:23;10.88;;;9.82;;
56319;SDS011;42226;42.382;23.748;2023-08-20T01:17:51;11.25;;;10.15;;
56319;SDS011;42226;42.382;23.748;2023-08-20T01:20:18;10.68;;;9.80;;
56319;SDS011;42226;42.382;23.748;2023-08-20T01:30:57;10.55;;;9.63;;
56319;SDS011;42226;42.382;23.748;2023-08-20T01:33:27;10.48;;;9.48;;
56319;SDS011;42226;42.382;23.748;2023-08-20T01:35:55;10.85;;;9.45;;
56319;SDS011;42226;42.382;23.748;2023-08-20T01:38:22;10.88;;;9.70;;
56319;SDS011;42226;42.382;23.748;2023-08-20T01:40:49;9.80;;;9.00;;
56319;SDS011;42226;42.382;23.748;2023-08-20T01:43:17;9.77;;;8.88;;
56319;SDS011;42226;42.382;23.748;2023-08-20T01:45:44;9.40;;;8.60;;
56319;SDS011;42226;42.382;23.748;2023-08-20T01:48:11;9.65;;;8.65;;
56319;SDS011;42226;42.382;23.748;2023-08-20T01:50:38;9.23;;;8.50;;
56319;SDS011;42226;42.382;23.748;2023-08-20T01:53:05;9.52;;;8.63;;
56319;SDS011;42226;42.382;23.748;2023-08-20T01:55:32;9.15;;;8.25;;
56319;SDS011;42226;42.382;23.748;2023-08-20T01:57:59;9.30;;;8.48;;
56319;SDS011;42226;42.382;23.748;2023-08-20T02:00:26;9.40;;;8.50;;
56319;SDS011;42226;42.382;23.748;2023-08-20T02:02:53;10.30;;;9.27;;
56319;SDS011;42226;42.382;23.748;2023-08-20T02:05:21;9.68;;;8.73;;
56319;SDS011;42226;42.382;23.748;2023-08-20T02:07:48;10.20;;;9.30;;
56319;SDS011;42226;42.382;23.748;2023-08-20T02:10:15;11.05;;;10.00;;
56319;SDS011;42226;42.382;23.748;2023-08-20T02:12:42;10.27;;;9.38;;
56319;SDS011;42226;42.382;23.748;2023-08-20T02:15:10;10.73;;;9.68;;
56319;SDS011;42226;42.382;23.748;2023-08-20T02:17:37;11.00;;;9.70;;
56319;SDS011;42226;42.382;23.748;2023-08-20T02:20:04;10.18;;;9.15;;
56319;SDS011;42226;42.382;23.748;2023-08-20T02:22:35;11.57;;;9.73;;
56319;SDS011;42226;42.382;23.748;2023-08-20T02:25:02;10.00;;;9.15;;
56319;SDS011;42226;42.382;23.748;2023-08-20T02:27:30;11.27;;;10.13;;
56319;SDS011;42226;42.382;23.748;2023-08-20T02:29:57;9.98;;;9.15;;
56319;SDS011;42226;42.382;23.748;2023-08-20T02:32:25;11.13;;;10.05;;
56319;SDS011;42226;42.382;23.748;2023-08-20T02:34:52;10.20;;;9.25;;
56319;SDS011;42226;42.382;23.748;2023-08-20T02:37:20;10.57;;;9.60;;
56319;SDS011;42226;42.382;23.748;2023-08-20T02:39:48;13.95;;;9.48;;
56319;SDS011;42226;42.382;23.748;2023-08-20T02:45:04;10.48;;;9.43;;
56319;SDS011;42226;42.382;23.748;2023-08-20T02:47:31;11.00;;;9.90;;
56319;SDS011;42226;42.382;23.748;2023-08-20T02:49:59;9.93;;;9.02;;
56319;SDS011;42226;42.382;23.748;2023-08-20T02:52:27;9.88;;;8.98;;
56319;SDS011;42226;42.382;23.748;2023-08-20T02:54:54;10.30;;;9.23;;
56319;SDS011;42226;42.382;23.748;2023-08-20T02:57:22;10.18;;;9.00;;
56319;SDS011;42226;42.382;23.748;2023-08-20T02:59:49;10.15;;;9.05;;
56319;SDS011;42226;42.382;23.748;2023-08-20T03:02:17;10.50;;;9.45;;
56319;SDS011;42226;42.382;23.748;2023-08-20T03:04:44;10.23;;;9.15;;
56319;SDS011;42226;42.382;23.748;2023-08-20T03:07:12;17.25;;;9.52;;
56319;SDS011;42226;42.382;23.748;2023-08-20T03:09:38;10.82;;;9.80;;
56319;SDS011;42226;42.382;23.748;2023-08-20T03:12:07;10.50;;;9.60;;
56319;SDS011;42226;42.382;23.748;2023-08-20T03:14:34;10.98;;;9.98;;
56319;SDS011;42226;42.382;23.748;2023-08-20T03:17:01;10.63;;;9.50;;
56319;SDS011;42226;42.382;23.748;2023-08-20T03:19:32;10.73;;;9.73;;
56319;SDS011;42226;42.382;23.748;2023-08-20T03:22:01;12.98;;;10.48;;
56319;SDS011;42226;42.382;23.748;2023-08-20T03:24:30;10.40;;;9.30;;
56319;SDS011;42226;42.382;23.748;2023-08-20T03:26:59;11.15;;;9.98;;
56319;SDS011;42226;42.382;23.748;2023-08-20T03:29:25;10.77;;;9.68;;
56319;SDS011;42226;42.382;23.748;2023-08-20T03:31:52;10.45;;;9.43;;
56319;SDS011;42226;42.382;23.748;2023-08-20T03:34:20;9.65;;;8.73;;
56319;SDS011;42226;42.382;23.748;2023-08-20T03:36:47;10.45;;;9.13;;
56319;SDS011;42226;42.382;23.748;2023-08-20T03:39:14;10.35;;;9.30;;
56319;SDS011;42226;42.382;23.748;2023-08-20T03:41:41;11.48;;;8.75;;
56319;SDS011;42226;42.382;23.748;2023-08-20T03:44:09;10.20;;;9.23;;
56319;SDS011;42226;42.382;23.748;2023-08-20T03:46:36;9.75;;;8.90;;
56319;SDS011;42226;42.382;23.748;2023-08-20T03:49:04;10.18;;;9.38;;
56319;SDS011;42226;42.382;23.748;2023-08-20T03:51:32;9.70;;;8.80;;
56319;SDS011;42226;42.382;23.748;2023-08-20T03:53:58;9.85;;;8.95;;
56319;SDS011;42226;42.382;23.748;2023-08-20T03:56:25;9.07;;;8.27;;
56319;SDS011;42226;42.382;23.748;2023-08-20T03:58:53;10.38;;;8.90;;
56319;SDS011;42226;42.382;23.748;2023-08-20T04:01:21;9.65;;;8.73;;
56319;SDS011;42226;42.382;23.748;2023-08-20T04:03:48;10.25;;;9.07;;
56319;SDS011;42226;42.382;23.748;2023-08-20T04:06:16;10.13;;;9.23;;
56319;SDS011;42226;42.382;23.748;2023-08-20T04:08:43;10.35;;;9.52;;
56319;SDS011;42226;42.382;23.748;2023-08-20T04:11:10;10.98;;;9.88;;
56319;SDS011;42226;42.382;23.748;2023-08-20T04:13:37;10.50;;;9.48;;
56319;SDS011;42226;42.382;23.748;2023-08-20T04:16:05;10.55;;;9.55;;
56319;SDS011;42226;42.382;23.748;2023-08-20T04:18:33;10.63;;;9.55;;
56319;SDS011;42226;42.382;23.748;2023-08-20T04:21:00;9.80;;;8.95;;
56319;SDS011;42226;42.382;23.748;2023-08-20T04:23:28;15.10;;;9.75;;
56319;SDS011;42226;42.382;23.748;2023-08-20T04:25:55;9.70;;;8.90;;
56319;SDS011;42226;42.382;23.748;2023-08-20T04:28:23;10.85;;;9.80;;
56319;SDS011;42226;42.382;23.748;2023-08-20T04:30:52;10.00;;;9.10;;
56319;SDS011;42226;42.382;23.748;2023-08-20T04:33:28;9.20;;;8.48;;
56319;SDS011;42226;42.382;23.748;2023-08-20T04:35:56;9.93;;;9.00;;
56319;SDS011;42226;42.382;23.748;2023-08-20T04:38:24;10.50;;;9.60;;
56319;SDS011;42226;42.382;23.748;2023-08-20T04:40:51;10.80;;;9.80;;
56319;SDS011;42226;42.382;23.748;2023-08-20T04:43:18;10.48;;;9.57;;
56319;SDS011;42226;42.382;23.748;2023-08-20T04:45:45;11.27;;;9.77;;
56319;SDS011;42226;42.382;23.748;2023-08-20T04:48:13;9.77;;;8.88;;
56319;SDS011;42226;42.382;23.748;2023-08-20T04:50:40;10.77;;;9.70;;
56319;SDS011;42226;42.382;23.748;2023-08-20T04:53:07;10.18;;;9.18;;
56319;SDS011;42226;42.382;23.748;2023-08-20T04:55:35;10.13;;;9.27;;
56319;SDS011;42226;42.382;23.748;2023-08-20T04:58:01;10.18;;;9.27;;
56319;SDS011;42226;42.382;23.748;2023-08-20T05:00:29;9.75;;;8.77;;
56319;SDS011;42226;42.382;23.748;2023-08-20T05:02:56;9.57;;;8.68;;
56319;SDS011;42226;42.382;23.748;2023-08-20T05:05:24;10.75;;;8.57;;
56319;SDS011;42226;42.382;23.748;2023-08-20T05:07:51;9.68;;;8.88;;
56319;SDS011;42226;42.382;23.748;2023-08-20T05:10:19;10.10;;;9.10;;
56319;SDS011;42226;42.382;23.748;2023-08-20T05:12:46;9.82;;;8.93;;
56319;SDS011;42226;42.382;23.748;2023-08-20T05:15:14;9.88;;;9.07;;
56319;SDS011;42226;42.382;23.748;2023-08-20T05:17:41;9.98;;;9.18;;
56319;SDS011;42226;42.382;23.748;2023-08-20T05:20:08;10.93;;;9.52;;
56319;SDS011;42226;42.382;23.748;2023-08-20T05:22:36;11.57;;;9.15;;
56319;SDS011;42226;42.382;23.748;2023-08-20T05:25:03;9.35;;;8.55;;
56319;SDS011;42226;42.382;23.748;2023-08-20T05:27:31;10.23;;;9.18;;
56319;SDS011;42226;42.382;23.748;2023-08-20T05:29:57;9.57;;;8.68;;
56319;SDS011;42226;42.382;23.748;2023-08-20T05:32:25;8.88;;;8.13;;
56319;SDS011;42226;42.382;23.748;2023-08-20T05:34:53;9.43;;;8.52;;
56319;SDS011;42226;42.382;23.748;2023-08-20T05:37:21;9.30;;;8.50;;
56319;SDS011;42226;42.382;23.748;2023-08-20T05:43:30;9.00;;;8.10;;
56319;SDS011;42226;42.382;23.748;2023-08-20T05:49:08;8.77;;;7.95;;
56319;SDS011;42226;42.382;23.748;2023-08-20T05:51:36;8.20;;;7.50;;
56319;SDS011;42226;42.382;23.748;2023-08-20T05:54:02;8.60;;;7.80;;
56319;SDS011;42226;42.382;23.748;2023-08-20T05:56:30;9.20;;;8.40;;
56319;SDS011;42226;42.382;23.748;2023-08-20T05:58:57;11.05;;;8.90;;
56319;SDS011;42226;42.382;23.748;2023-08-20T06:01:24;9.40;;;8.60;;
56319;SDS011;42226;42.382;23.748;2023-08-20T06:03:52;9.43;;;8.60;;
56319;SDS011;42226;42.382;23.748;2023-08-20T06:06:19;9.23;;;8.43;;
56319;SDS011;42226;42.382;23.748;2023-08-20T06:08:47;12.23;;;8.45;;
56319;SDS011;42226;42.382;23.748;2023-08-20T06:11:15;9.25;;;8.32;;
56319;SDS011;42226;42.382;23.748;2023-08-20T06:13:42;10.82;;;8.50;;
56319;SDS011;42226;42.382;23.748;2023-08-20T06:16:09;9.77;;;8.70;;
56319;SDS011;42226;42.382;23.748;2023-08-20T06:18:36;8.77;;;7.88;;
56319;SDS011;42226;42.382;23.748;2023-08-20T06:21:03;9.20;;;8.30;;
56319;SDS011;42226;42.382;23.748;2023-08-20T06:23:31;9.45;;;8.55;;
56319;SDS011;42226;42.382;23.748;2023-08-20T06:25:58;9.25;;;8.43;;
56319;SDS011;42226;42.382;23.748;2023-08-20T06:28:26;8.85;;;8.10;;
56319;SDS011;42226;42.382;23.748;2023-08-20T06:30:54;9.60;;;8.60;;
56319;SDS011;42226;42.382;23.748;2023-08-20T06:33:21;10.35;;;8.77;;
56319;SDS011;42226;42.382;23.748;2023-08-20T06:35:49;8.93;;;8.23;;
56319;SDS011;42226;42.382;23.748;2023-08-20T06:41:04;9.25;;;8.50;;
56319;SDS011;42226;42.382;23.748;2023-08-20T06:43:32;10.27;;;8.38;;
56319;SDS011;42226;42.382;23.748;2023-08-20T06:45:59;10.05;;;8.77;;
56319;SDS011;42226;42.382;23.748;2023-08-20T06:48:27;9.43;;;8.45;;
56319;SDS011;42226;42.382;23.748;2023-08-20T06:50:54;9.40;;;8.60;;
56319;SDS011;42226;42.382;23.748;2023-08-20T06:53:21;9.23;;;8.10;;
56319;SDS011;42226;42.382;23.748;2023-08-20T06:55:51;9.18;;;8.30;;
56319;SDS011;42226;42.382;23.748;2023-08-20T06:58:18;10.13;;;8.20;;
56319;SDS011;42226;42.382;23.748;2023-08-20T07:00:46;14.02;;;8.88;;
56319;SDS011;42226;42.382;23.748;2023-08-20T07:03:12;9.55;;;8.43;;
56319;SDS011;42226;42.382;23.748;2023-08-20T07:05:40;8.65;;;7.85;;
56319;SDS011;42226;42.382;23.748;2023-08-20T07:08:07;8.68;;;7.88;;
56319;SDS011;42226;42.382;23.748;2023-08-20T07:10:35;9.35;;;8.15;;
56319;SDS011;42226;42.382;23.748;2023-08-20T07:13:03;8.68;;;7.22;;
56319;SDS011;42226;42.382;23.748;2023-08-20T07:15:30;7.70;;;7.10;;
56319;SDS011;42226;42.382;23.748;2023-08-20T07:17:58;8.20;;;7.35;;
56319;SDS011;42226;42.382;23.748;2023-08-20T07:20:24;7.20;;;6.50;;
56319;SDS011;42226;42.382;23.748;2023-08-20T07:22:52;7.70;;;6.97;;
56319;SDS011;42226;42.382;23.748;2023-08-20T07:25:18;6.95;;;6.35;;
56319;SDS011;42226;42.382;23.748;2023-08-20T07:27:46;8.38;;;6.47;;
56319;SDS011;42226;42.382;23.748;2023-08-20T07:30:14;7.43;;;6.57;;
56319;SDS011;42226;42.382;23.748;2023-08-20T07:32:41;7.68;;;6.53;;
56319;SDS011;42226;42.382;23.748;2023-08-20T07:35:09;7.10;;;6.40;;
56319;SDS011;42226;42.382;23.748;2023-08-20T07:37:36;6.65;;;5.90;;
56319;SDS011;42226;42.382;23.748;2023-08-20T07:40:04;6.10;;;5.60;;
56319;SDS011;42226;42.382;23.748;2023-08-20T07:42:38;6.75;;;6.03;;
56319;SDS011;42226;42.382;23.748;2023-08-20T07:45:07;7.40;;;6.80;;
56319;SDS011;42226;42.382;23.748;2023-08-20T07:47:35;7.10;;;6.13;;
56319;SDS011;42226;42.382;23.748;2023-08-20T07:50:07;5.97;;;5.47;;
56319;SDS011;42226;42.382;23.748;2023-08-20T07:52:37;6.88;;;6.18;;
56319;SDS011;42226;42.382;23.748;2023-08-20T07:55:06;7.47;;;6.78;;
56319;SDS011;42226;42.382;23.748;2023-08-20T07:57:33;7.45;;;6.30;;
56319;SDS011;42226;42.382;23.748;2023-08-20T08:00:02;7.57;;;6.93;;
56319;SDS011;42226;42.382;23.748;2023-08-20T08:02:29;7.60;;;6.93;;
56319;SDS011;42226;42.382;23.748;2023-08-20T08:04:57;7.00;;;6.30;;
56319;SDS011;42226;42.382;23.748;2023-08-20T08:07:24;7.00;;;6.22;;
56319;SDS011;42226;42.382;23.748;2023-08-20T08:09:52;7.03;;;6.38;;
56319;SDS011;42226;42.382;23.748;2023-08-20T08:12:20;6.38;;;5.70;;
56319;SDS011;42226;42.382;23.748;2023-08-20T08:14:48;6.57;;;5.97;;
56319;SDS011;42226;42.382;23.748;2023-08-20T08:17:16;6.70;;;5.80;;
56319;SDS011;42226;42.382;23.748;2023-08-20T08:19:43;11.02;;;6.38;;
56319;SDS011;42226;42.382;23.748;2023-08-20T08:22:10;7.60;;;6.07;;
56319;SDS011;42226;42.382;23.748;2023-08-20T08:24:37;7.43;;;6.63;;
56319;SDS011;42226;42.382;23.748;2023-08-20T08:27:08;7.10;;;6.40;;
56319;SDS011;42226;42.382;23.748;2023-08-20T08:29:35;6.38;;;5.88;;
56319;SDS011;42226;42.382;23.748;2023-08-20T08:32:03;7.10;;;6.10;;
56319;SDS011;42226;42.382;23.748;2023-08-20T08:34:30;7.55;;;6.03;;
56319;SDS011;42226;42.382;23.748;2023-08-20T08:36:59;6.80;;;6.05;;
56319;SDS011;42226;42.382;23.748;2023-08-20T08:39:26;6.45;;;5.85;;
56319;SDS011;42226;42.382;23.748;2023-08-20T08:41:56;7.13;;;5.90;;
56319;SDS011;42226;42.382;23.748;2023-08-20T08:44:32;6.63;;;6.07;;
56319;SDS011;42226;42.382;23.748;2023-08-20T08:47:04;6.20;;;5.70;;
56319;SDS011;42226;42.382;23.748;2023-08-20T08:49:34;6.78;;;5.85;;
56319;SDS011;42226;42.382;23.748;2023-08-20T08:52:03;10.43;;;5.95;;
56319;SDS011;42226;42.382;23.748;2023-08-20T08:54:32;7.60;;;5.05;;
56319;SDS011;42226;42.382;23.748;2023-08-20T08:57:00;5.72;;;5.22;;
56319;SDS011;42226;42.382;23.748;2023-08-20T08:59:29;5.50;;;5.10;;
56319;SDS011;42226;42.382;23.748;2023-08-20T09:05:24;6.00;;;5.38;;
56319;SDS011;42226;42.382;23.748;2023-08-20T09:07:58;5.80;;;5.30;;
56319;SDS011;42226;42.382;23.748;2023-08-20T09:10:25;6.03;;;5.53;;
56319;SDS011;42226;42.382;23.748;2023-08-20T09:12:54;6.10;;;5.60;;
56319;SDS011;42226;42.382;23.748;2023-08-20T09:15:22;6.53;;;5.78;;
56319;SDS011;42226;42.382;23.748;2023-08-20T09:18:01;6.00;;;5.50;;
56319;SDS011;42226;42.382;23.748;2023-08-20T09:20:38;5.97;;;5.30;;
56319;SDS011;42226;42.382;23.748;2023-08-20T09:23:10;5.63;;;5.22;;
56319;SDS011;42226;42.382;23.748;2023-08-20T09:25:40;5.78;;;5.28;;
56319;SDS011;42226;42.382;23.748;2023-08-20T09:28:08;6.10;;;5.28;;
56319;SDS011;42226;42.382;23.748;2023-08-20T09:30:35;5.93;;;5.32;;
56319;SDS011;42226;42.382;23.748;2023-08-20T09:33:12;6.35;;;5.75;;
56319;SDS011;42226;42.382;23.748;2023-08-20T09:35:48;5.70;;;5.20;;
56319;SDS011;42226;42.382;23.748;2023-08-20T09:38:16;5.57;;;5.07;;
56319;SDS011;42226;42.382;23.748;2023-08-20T09:40:50;4.97;;;4.57;;
56319;SDS011;42226;42.382;23.748;2023-08-20T09:43:21;6.88;;;5.30;;
56319;SDS011;42226;42.382;23.748;2023-08-20T09:45:54;6.00;;;4.82;;
56319;SDS011;42226;42.382;23.748;2023-08-20T09:48:23;6.05;;;5.00;;
56319;SDS011;42226;42.382;23.748;2023-08-20T09:50:52;5.60;;;5.10;;
56319;SDS011;42226;42.382;23.748;2023-08-20T09:53:33;5.15;;;4.75;;
56319;SDS011;42226;42.382;23.748;2023-08-20T09:58:59;5.38;;;4.88;;
56319;SDS011;42226;42.382;23.748;2023-08-20T10:01:27;5.47;;;4.80;;
56319;SDS011;42226;42.382;23.748;2023-08-20T10:03:55;5.32;;;4.93;;
56319;SDS011;42226;42.382;23.748;2023-08-20T10:06:22;5.47;;;4.85;;
56319;SDS011;42226;42.382;23.748;2023-08-20T10:08:50;4.70;;;4.38;;
56319;SDS011;42226;42.382;23.748;2023-08-20T10:11:18;5.07;;;4.68;;
56319;SDS011;42226;42.382;23.748;2023-08-20T10:13:45;5.70;;;4.65;;
56319;SDS011;42226;42.382;23.748;2023-08-20T10:16:12;5.25;;;4.65;;
56319;SDS011;42226;42.382;23.748;2023-08-20T10:18:45;6.60;;;4.70;;
56319;SDS011;42226;42.382;23.748;2023-08-20T10:21:13;5.00;;;4.60;;
56319;SDS011;42226;42.382;23.748;2023-08-20T10:23:41;5.00;;;4.60;;
56319;SDS011;42226;42.382;23.748;2023-08-20T10:26:13;4.90;;;4.50;;
56319;SDS011;42226;42.382;23.748;2023-08-20T10:28:42;5.10;;;4.60;;
56319;SDS011;42226;42.382;23.748;2023-08-20T10:31:10;4.88;;;4.47;;
56319;SDS011;42226;42.382;23.748;2023-08-20T10:33:49;6.30;;;4.57;;
56319;SDS011;42226;42.382;23.748;2023-08-20T10:36:21;4.82;;;4.30;;
56319;SDS011;42226;42.382;23.748;2023-08-20T10:38:54;4.63;;;4.30;;
56319;SDS011;42226;42.382;23.748;2023-08-20T10:44:04;5.32;;;4.88;;
56319;SDS011;42226;42.382;23.748;2023-08-20T10:46:31;5.05;;;4.55;;
56319;SDS011;42226;42.382;23.748;2023-08-20T10:49:02;6.38;;;4.57;;
56319;SDS011;42226;42.382;23.748;2023-08-20T10:51:30;4.70;;;4.30;;
56319;SDS011;42226;42.382;23.748;2023-08-20T10:54:07;5.22;;;4.70;;
56319;SDS011;42226;42.382;23.748;2023-08-20T10:56:40;4.40;;;4.00;;
56319;SDS011;42226;42.382;23.748;2023-08-20T11:02:00;4.55;;;4.25;;
56319;SDS011;42226;42.382;23.748;2023-08-20T11:04:30;4.43;;;4.03;;
56319;SDS011;42226;42.382;23.748;2023-08-20T11:07:00;4.40;;;4.10;;
56319;SDS011;42226;42.382;23.748;2023-08-20T11:09:29;5.22;;;3.92;;
56319;SDS011;42226;42.382;23.748;2023-08-20T11:11:57;4.63;;;4.20;;
56319;SDS011;42226;42.382;23.748;2023-08-20T11:14:26;4.32;;;4.03;;
56319;SDS011;42226;42.382;23.748;2023-08-20T11:16:53;4.25;;;3.88;;
56319;SDS011;42226;42.382;23.748;2023-08-20T11:19:22;4.50;;;4.20;;
56319;SDS011;42226;42.382;23.748;2023-08-20T11:21:50;4.13;;;3.75;;
56319;SDS011;42226;42.382;23.748;2023-08-20T11:24:17;4.80;;;4.20;;
56319;SDS011;42226;42.382;23.748;2023-08-20T11:26:46;4.45;;;4.13;;
56319;SDS011;42226;42.382;23.748;2023-08-20T11:29:13;4.20;;;3.80;;
56319;SDS011;42226;42.382;23.748;2023-08-20T11:31:45;4.47;;;3.90;;
56319;SDS011;42226;42.382;23.748;2023-08-20T11:34:14;4.45;;;4.10;;
56319;SDS011;42226;42.382;23.748;2023-08-20T11:36:42;4.88;;;4.38;;
56319;SDS011;42226;42.382;23.748;2023-08-20T11:39:08;4.63;;;4.22;;
56319;SDS011;42226;42.382;23.748;2023-08-20T11:41:35;4.75;;;4.35;;
56319;SDS011;42226;42.382;23.748;2023-08-20T11:44:03;4.85;;;4.35;;
56319;SDS011;42226;42.382;23.748;2023-08-20T11:46:31;4.90;;;4.50;;
56319;SDS011;42226;42.382;23.748;2023-08-20T11:49:02;4.90;;;4.50;;
56319;SDS011;42226;42.382;23.748;2023-08-20T11:54:13;4.72;;;4.32;;
56319;SDS011;42226;42.382;23.748;2023-08-20T11:56:50;4.80;;;4.38;;
56319;SDS011;42226;42.382;23.748;2023-08-20T11:59:21;4.50;;;4.13;;
56319;SDS011;42226;42.382;23.748;2023-08-20T12:01:52;4.80;;;4.40;;
56319;SDS011;42226;42.382;23.748;2023-08-20T12:04:23;4.82;;;4.43;;
56319;SDS011;42226;42.382;23.748;2023-08-20T12:07:05;4.65;;;4.35;;
56319;SDS011;42226;42.382;23.748;2023-08-20T12:09:39;5.05;;;4.45;;
56319;SDS011;42226;42.382;23.748;2023-08-20T12:12:07;5.25;;;4.43;;
56319;SDS011;42226;42.382;23.748;2023-08-20T12:14:34;4.53;;;4.15;;
56319;SDS011;42226;42.382;23.748;2023-08-20T12:17:01;7.65;;;4.90;;
56319;SDS011;42226;42.382;23.748;2023-08-20T12:19:29;4.93;;;4.55;;
56319;SDS011;42226;42.382;23.748;2023-08-20T12:21:57;5.07;;;4.70;;
56319;SDS011;42226;42.382;23.748;2023-08-20T12:24:23;5.28;;;4.45;;
56319;SDS011;42226;42.382;23.748;2023-08-20T12:26:51;5.03;;;4.35;;
56319;SDS011;42226;42.382;23.748;2023-08-20T12:29:19;4.80;;;4.38;;
56319;SDS011;42226;42.382;23.748;2023-08-20T12:31:46;4.72;;;4.28;;
56319;SDS011;42226;42.382;23.748;2023-08-20T12:34:13;5.30;;;4.90;;
56319;SDS011;42226;42.382;23.748;2023-08-20T12:36:41;5.00;;;4.20;;
56319;SDS011;42226;42.382;23.748;2023-08-20T12:39:08;4.53;;;4.22;;
56319;SDS011;42226;42.382;23.748;2023-08-20T12:41:36;5.32;;;4.93;;
56319;SDS011;42226;42.382;23.748;2023-08-20T12:44:04;4.90;;;4.55;;
56319;SDS011;42226;42.382;23.748;2023-08-20T12:46:31;4.95;;;4.47;;
56319;SDS011;42226;42.382;23.748;2023-08-20T12:48:59;5.30;;;4.80;;
56319;SDS011;42226;42.382;23.748;2023-08-20T12:51:27;15.63;;;5.05;;
56319;SDS011;42226;42.382;23.748;2023-08-20T12:53:54;5.38;;;4.35;;
56319;SDS011;42226;42.382;23.748;2023-08-20T12:56:21;6.07;;;4.75;;
56319;SDS011;42226;42.382;23.748;2023-08-20T12:58:48;4.60;;;4.20;;
56319;SDS011;42226;42.382;23.748;2023-08-20T13:01:15;4.70;;;4.30;;
56319;SDS011;42226;42.382;23.748;2023-08-20T13:03:42;4.30;;;4.00;;
56319;SDS011;42226;42.382;23.748;2023-08-20T13:06:09;6.07;;;4.28;;
56319;SDS011;42226;42.382;23.748;2023-08-20T13:08:36;4.65;;;4.25;;
56319;SDS011;42226;42.382;23.748;2023-08-20T13:11:03;6.10;;;4.78;;
56319;SDS011;42226;42.382;23.748;2023-08-20T13:13:31;4.97;;;4.57;;
56319;SDS011;42226;42.382;23.748;2023-08-20T13:15:59;4.78;;;4.35;;
56319;SDS011;42226;42.382;23.748;2023-08-20T13:18:27;4.85;;;4.43;;
56319;SDS011;42226;42.382;23.748;2023-08-20T13:20:55;4.78;;;4.40;;
56319;SDS011;42226;42.382;23.748;2023-08-20T13:26:11;4.85;;;4.45;;
56319;SDS011;42226;42.382;23.748;2023-08-20T13:28:38;9.73;;;4.60;;
56319;SDS011;42226;42.382;23.748;2023-08-20T13:31:06;4.85;;;4.45;;
56319;SDS011;42226;42.382;23.748;2023-08-20T13:33:33;5.10;;;4.60;;
56319;SDS011;42226;42.382;23.748;2023-08-20T13:36:01;5.22;;;4.82;;
56319;SDS011;42226;42.382;23.748;2023-08-20T13:38:30;5.13;;;4.63;;
56319;SDS011;42226;42.382;23.748;2023-08-20T13:40:58;5.15;;;4.70;;
56319;SDS011;42226;42.382;23.748;2023-08-20T13:43:25;4.85;;;4.45;;
56319;SDS011;42226;42.382;23.748;2023-08-20T13:45:56;5.05;;;4.40;;
56319;SDS011;42226;42.382;23.748;2023-08-20T13:48:22;5.72;;;4.85;;
56319;SDS011;42226;42.382;23.748;2023-08-20T13:50:50;5.72;;;4.68;;
56319;SDS011;42226;42.382;23.748;2023-08-20T13:53:16;5.10;;;4.70;;
56319;SDS011;42226;42.382;23.748;2023-08-20T13:55:44;10.02;;;4.88;;
56319;SDS011;42226;42.382;23.748;2023-08-20T13:58:12;5.30;;;4.80;;
56319;SDS011;42226;42.382;23.748;2023-08-20T14:00:40;4.90;;;4.40;;
56319;SDS011;42226;42.382;23.748;2023-08-20T14:03:19;5.25;;;4.75;;
56319;SDS011;42226;42.382;23.748;2023-08-20T14:05:46;5.25;;;4.75;;
56319;SDS011;42226;42.382;23.748;2023-08-20T14:08:14;5.30;;;4.90;;
56319;SDS011;42226;42.382;23.748;2023-08-20T14:10:42;4.82;;;4.43;;
56319;SDS011;42226;42.382;23.748;2023-08-20T14:13:09;6.18;;;4.63;;
56319;SDS011;42226;42.382;23.748;2023-08-20T14:15:37;4.60;;;4.20;;
56319;SDS011;42226;42.382;23.748;2023-08-20T14:18:04;5.45;;;4.70;;
56319;SDS011;42226;42.382;23.748;2023-08-20T14:20:31;9.38;;;4.90;;
56319;SDS011;42226;42.382;23.748;2023-08-20T14:22:58;5.43;;;4.93;;
56319;SDS011;42226;42.382;23.748;2023-08-20T14:25:25;5.25;;;4.75;;
56319;SDS011;42226;42.382;23.748;2023-08-20T14:27:53;4.95;;;4.47;;
56319;SDS011;42226;42.382;23.748;2023-08-20T14:30:19;4.85;;;4.20;;
56319;SDS011;42226;42.382;23.748;2023-08-20T14:35:48;5.65;;;4.75;;
56319;SDS011;42226;42.382;23.748;2023-08-20T14:38:16;5.00;;;4.50;;
56319;SDS011;42226;42.382;23.748;2023-08-20T14:40:44;7.82;;;4.95;;
56319;SDS011;42226;42.382;23.748;2023-08-20T14:43:11;5.55;;;4.78;;
56319;SDS011;42226;42.382;23.748;2023-08-20T14:45:38;4.95;;;4.55;;
56319;SDS011;42226;42.382;23.748;2023-08-20T14:48:06;5.32;;;4.65;;
56319;SDS011;42226;42.382;23.748;2023-08-20T14:50:33;5.72;;;5.03;;
56319;SDS011;42226;42.382;23.748;2023-08-20T14:53:01;5.88;;;5.28;;
56319;SDS011;42226;42.382;23.748;2023-08-20T14:55:28;5.43;;;4.93;;
56319;SDS011;42226;42.382;23.748;2023-08-20T14:57:55;4.88;;;4.47;;
56319;SDS011;42226;42.382;23.748;2023-08-20T15:00:22;5.03;;;4.63;;
56319;SDS011;42226;42.382;23.748;2023-08-20T15:02:50;5.63;;;5.10;;
56319;SDS011;42226;42.382;23.748;2023-08-20T15:05:18;7.32;;;4.78;;
56319;SDS011;42226;42.382;23.748;2023-08-20T15:07:45;5.40;;;4.90;;
56319;SDS011;42226;42.382;23.748;2023-08-20T15:10:13;5.35;;;4.85;;
56319;SDS011;42226;42.382;23.748;2023-08-20T15:12:39;5.10;;;4.60;;
56319;SDS011;42226;42.382;23.748;2023-08-20T15:15:07;6.88;;;5.00;;
56319;SDS011;42226;42.382;23.748;2023-08-20T15:17:34;5.85;;;5.03;;
56319;SDS011;42226;42.382;23.748;2023-08-20T15:20:03;6.65;;;5.07;;